sensor_id;sensor_type;location;lat;lon;timestamp;temperature;humidity
70271;SHT31;57680;54.292;18.598;2023-12-14T00:02:20;0.52;99.99
70271;SHT31;57680;54.292;18.598;2023-12-14T00:04:46;0.56;99.99
70271;SHT31;57680;54.292;18.598;2023-12-14T00:07:11;0.56;99.99
70271;SHT31;57680;54.292;18.598;2023-12-14T00:09:36;0.56;99.99
70271;SHT31;57680;54.292;18.598;2023-12-14T00:12:02;0.60;99.99
70271;SHT31;57680;54.292;18.598;2023-12-14T00:14:27;0.60;99.99
70271;SHT31;57680;54.292;18.598;2023-12-14T00:16:53;0.59;99.99
70271;SHT31;57680;54.292;18.598;2023-12-14T00:19:18;0.60;99.99
70271;SHT31;57680;54.292;18.598;2023-12-14T00:21:43;0.63;99.99
70271;SHT31;57680;54.292;18.598;2023-12-14T00:24:08;0.59;99.99
70271;SHT31;57680;54.292;18.598;2023-12-14T00:26:34;0.60;99.99
70271;SHT31;57680;54.292;18.598;2023-12-14T00:28:59;0.63;99.99
70271;SHT31;57680;54.292;18.598;2023-12-14T00:31:24;0.63;99.99
70271;SHT31;57680;54.292;18.598;2023-12-14T00:33:50;0.58;99.99
70271;SHT31;57680;54.292;18.598;2023-12-14T00:36:18;0.53;99.99
70271;SHT31;57680;54.292;18.598;2023-12-14T00:38:44;0.52;99.99
70271;SHT31;57680;54.292;18.598;2023-12-14T00:41:10;0.52;99.99
70271;SHT31;57680;54.292;18.598;2023-12-14T00:43:35;0.53;99.99
70271;SHT31;57680;54.292;18.598;2023-12-14T00:46:00;0.49;99.99
70271;SHT31;57680;54.292;18.598;2023-12-14T00:48:26;0.56;99.99
70271;SHT31;57680;54.292;18.598;2023-12-14T00:50:51;0.56;99.99
70271;SHT31;57680;54.292;18.598;2023-12-14T00:53:16;0.59;99.99
70271;SHT31;57680;54.292;18.598;2023-12-14T00:55:42;0.62;99.99
70271;SHT31;57680;54.292;18.598;2023-12-14T00:58:07;0.62;99.99
70271;SHT31;57680;54.292;18.598;2023-12-14T01:00:32;0.62;99.99
70271;SHT31;57680;54.292;18.598;2023-12-14T01:02:58;0.62;99.99
70271;SHT31;57680;54.292;18.598;2023-12-14T01:05:23;0.65;99.99
70271;SHT31;57680;54.292;18.598;2023-12-14T01:07:48;0.63;99.99
70271;SHT31;57680;54.292;18.598;2023-12-14T01:10:14;0.62;99.99
70271;SHT31;57680;54.292;18.598;2023-12-14T01:12:39;0.65;99.99
70271;SHT31;57680;54.292;18.598;2023-12-14T01:15:05;0.65;99.99
70271;SHT31;57680;54.292;18.598;2023-12-14T01:17:30;0.62;99.99
70271;SHT31;57680;54.292;18.598;2023-12-14T01:19:56;0.65;99.99
70271;SHT31;57680;54.292;18.598;2023-12-14T01:22:21;0.60;99.99
70271;SHT31;57680;54.292;18.598;2023-12-14T01:24:47;0.62;99.99
70271;SHT31;57680;54.292;18.598;2023-12-14T01:27:12;0.63;99.99
70271;SHT31;57680;54.292;18.598;2023-12-14T01:29:37;0.60;99.99
70271;SHT31;57680;54.292;18.598;2023-12-14T01:32:03;0.62;99.99
70271;SHT31;57680;54.292;18.598;2023-12-14T01:34:28;0.60;99.99
70271;SHT31;57680;54.292;18.598;2023-12-14T01:36:53;0.60;99.99
70271;SHT31;57680;54.292;18.598;2023-12-14T01:39:19;0.60;99.99
70271;SHT31;57680;54.292;18.598;2023-12-14T01:41:44;0.60;99.99
70271;SHT31;57680;54.292;18.598;2023-12-14T01:44:09;0.65;99.99
70271;SHT31;57680;54.292;18.598;2023-12-14T01:46:35;0.65;99.99
70271;SHT31;57680;54.292;18.598;2023-12-14T01:49:00;0.65;99.99
70271;SHT31;57680;54.292;18.598;2023-12-14T01:51:25;0.66;99.99
70271;SHT31;57680;54.292;18.598;2023-12-14T01:53:51;0.65;99.99
70271;SHT31;57680;54.292;18.598;2023-12-14T01:56:16;0.69;99.99
70271;SHT31;57680;54.292;18.598;2023-12-14T01:58:41;0.69;99.46
70271;SHT31;57680;54.292;18.598;2023-12-14T02:01:18;0.70;98.64
70271;SHT31;57680;54.292;18.598;2023-12-14T02:03:46;0.70;97.80
70271;SHT31;57680;54.292;18.598;2023-12-14T02:06:13;0.70;97.10
70271;SHT31;57680;54.292;18.598;2023-12-14T02:08:38;0.73;96.73
70271;SHT31;57680;54.292;18.598;2023-12-14T02:11:04;0.80;96.10
70271;SHT31;57680;54.292;18.598;2023-12-14T02:13:29;0.83;94.77
70271;SHT31;57680;54.292;18.598;2023-12-14T02:15:55;0.89;94.37
70271;SHT31;57680;54.292;18.598;2023-12-14T02:18:20;0.94;94.66
70271;SHT31;57680;54.292;18.598;2023-12-14T02:20:45;0.89;94.40
70271;SHT31;57680;54.292;18.598;2023-12-14T02:23:11;0.91;94.50
70271;SHT31;57680;54.292;18.598;2023-12-14T02:25:36;0.90;94.69
70271;SHT31;57680;54.292;18.598;2023-12-14T02:28:01;0.89;94.59
70271;SHT31;57680;54.292;18.598;2023-12-14T02:30:27;0.90;94.85
70271;SHT31;57680;54.292;18.598;2023-12-14T02:32:52;0.89;94.89
70271;SHT31;57680;54.292;18.598;2023-12-14T02:35:17;0.90;94.89
70271;SHT31;57680;54.292;18.598;2023-12-14T02:37:43;0.90;94.63
70271;SHT31;57680;54.292;18.598;2023-12-14T02:40:09;0.93;94.37
70271;SHT31;57680;54.292;18.598;2023-12-14T02:42:34;0.96;94.28
70271;SHT31;57680;54.292;18.598;2023-12-14T02:45:00;1.00;94.11
70271;SHT31;57680;54.292;18.598;2023-12-14T02:47:26;0.99;93.78
70271;SHT31;57680;54.292;18.598;2023-12-14T02:49:51;1.03;93.52
70271;SHT31;57680;54.292;18.598;2023-12-14T02:52:16;1.08;93.50
70271;SHT31;57680;54.292;18.598;2023-12-14T02:54:41;1.08;93.27
70271;SHT31;57680;54.292;18.598;2023-12-14T02:57:07;1.11;92.91
70271;SHT31;57680;54.292;18.598;2023-12-14T02:59:32;1.14;92.81
70271;SHT31;57680;54.292;18.598;2023-12-14T03:01:58;1.13;92.55
70271;SHT31;57680;54.292;18.598;2023-12-14T03:04:23;1.17;92.27
70271;SHT31;57680;54.292;18.598;2023-12-14T03:06:49;1.21;91.91
70271;SHT31;57680;54.292;18.598;2023-12-14T03:09:14;1.21;91.63
70271;SHT31;57680;54.292;18.598;2023-12-14T03:11:39;1.23;91.46
70271;SHT31;57680;54.292;18.598;2023-12-14T03:14:05;1.27;91.29
70271;SHT31;57680;54.292;18.598;2023-12-14T03:16:30;1.34;91.10
70271;SHT31;57680;54.292;18.598;2023-12-14T03:18:55;1.37;90.65
70271;SHT31;57680;54.292;18.598;2023-12-14T03:21:21;1.40;90.49
70271;SHT31;57680;54.292;18.598;2023-12-14T03:23:46;1.41;90.16
70271;SHT31;57680;54.292;18.598;2023-12-14T03:26:11;1.38;90.04
70271;SHT31;57680;54.292;18.598;2023-12-14T03:28:37;1.38;89.76
70271;SHT31;57680;54.292;18.598;2023-12-14T03:31:03;1.41;89.66
70271;SHT31;57680;54.292;18.598;2023-12-14T03:33:28;1.42;89.43
70271;SHT31;57680;54.292;18.598;2023-12-14T03:35:53;1.42;89.30
70271;SHT31;57680;54.292;18.598;2023-12-14T03:38:19;1.45;89.23
70271;SHT31;57680;54.292;18.598;2023-12-14T03:40:44;1.48;89.24
70271;SHT31;57680;54.292;18.598;2023-12-14T03:43:10;1.48;89.29
70271;SHT31;57680;54.292;18.598;2023-12-14T03:45:35;1.50;89.39
70271;SHT31;57680;54.292;18.598;2023-12-14T03:48:00;1.50;89.50
70271;SHT31;57680;54.292;18.598;2023-12-14T03:50:26;1.51;89.17
70271;SHT31;57680;54.292;18.598;2023-12-14T03:52:51;1.58;88.64
70271;SHT31;57680;54.292;18.598;2023-12-14T03:55:16;1.62;88.55
70271;SHT31;57680;54.292;18.598;2023-12-14T03:57:42;1.63;88.32
70271;SHT31;57680;54.292;18.598;2023-12-14T04:00:10;1.61;88.31
70271;SHT31;57680;54.292;18.598;2023-12-14T04:02:36;1.63;88.25
70271;SHT31;57680;54.292;18.598;2023-12-14T04:05:01;1.68;88.07
70271;SHT31;57680;54.292;18.598;2023-12-14T04:07:26;1.66;87.95
70271;SHT31;57680;54.292;18.598;2023-12-14T04:09:52;1.65;87.99
70271;SHT31;57680;54.292;18.598;2023-12-14T04:12:17;1.68;87.86
70271;SHT31;57680;54.292;18.598;2023-12-14T04:14:43;1.71;87.87
70271;SHT31;57680;54.292;18.598;2023-12-14T04:17:08;1.71;87.54
70271;SHT31;57680;54.292;18.598;2023-12-14T04:19:33;1.75;87.37
70271;SHT31;57680;54.292;18.598;2023-12-14T04:21:59;1.78;87.23
70271;SHT31;57680;54.292;18.598;2023-12-14T04:24:24;1.85;86.59
70271;SHT31;57680;54.292;18.598;2023-12-14T04:26:49;1.87;85.99
70271;SHT31;57680;54.292;18.598;2023-12-14T04:29:15;1.92;85.67
70271;SHT31;57680;54.292;18.598;2023-12-14T04:31:40;1.95;85.04
70271;SHT31;57680;54.292;18.598;2023-12-14T04:34:05;1.95;84.98
70271;SHT31;57680;54.292;18.598;2023-12-14T04:36:31;1.99;85.02
70271;SHT31;57680;54.292;18.598;2023-12-14T04:38:56;2.02;84.90
70271;SHT31;57680;54.292;18.598;2023-12-14T04:41:21;1.93;85.27
70271;SHT31;57680;54.292;18.598;2023-12-14T04:43:47;1.95;85.21
70271;SHT31;57680;54.292;18.598;2023-12-14T04:46:12;2.05;84.53
70271;SHT31;57680;54.292;18.598;2023-12-14T04:48:37;2.06;84.27
70271;SHT31;57680;54.292;18.598;2023-12-14T04:51:03;2.11;83.56
70271;SHT31;57680;54.292;18.598;2023-12-14T04:53:29;2.16;83.23
70271;SHT31;57680;54.292;18.598;2023-12-14T04:55:54;2.16;82.79
70271;SHT31;57680;54.292;18.598;2023-12-14T04:58:19;2.16;82.65
70271;SHT31;57680;54.292;18.598;2023-12-14T05:00:45;2.05;82.71
70271;SHT31;57680;54.292;18.598;2023-12-14T05:03:10;2.05;83.02
70271;SHT31;57680;54.292;18.598;2023-12-14T05:05:35;2.09;82.69
70271;SHT31;57680;54.292;18.598;2023-12-14T05:08:01;2.06;82.64
70271;SHT31;57680;54.292;18.598;2023-12-14T05:10:26;2.05;82.35
70271;SHT31;57680;54.292;18.598;2023-12-14T05:12:51;2.06;82.51
70271;SHT31;57680;54.292;18.598;2023-12-14T05:15:17;2.06;82.42
70271;SHT31;57680;54.292;18.598;2023-12-14T05:17:42;2.05;82.10
70271;SHT31;57680;54.292;18.598;2023-12-14T05:20:10;2.09;81.95
70271;SHT31;57680;54.292;18.598;2023-12-14T05:22:36;2.07;82.20
70271;SHT31;57680;54.292;18.598;2023-12-14T05:25:01;2.11;82.24
70271;SHT31;57680;54.292;18.598;2023-12-14T05:27:26;2.10;82.07
70271;SHT31;57680;54.292;18.598;2023-12-14T05:29:52;2.11;81.90
70271;SHT31;57680;54.292;18.598;2023-12-14T05:32:17;2.17;81.39
70271;SHT31;57680;54.292;18.598;2023-12-14T05:34:42;2.26;80.92
70271;SHT31;57680;54.292;18.598;2023-12-14T05:37:07;2.26;80.67
70271;SHT31;57680;54.292;18.598;2023-12-14T05:39:33;2.29;80.59
70271;SHT31;57680;54.292;18.598;2023-12-14T05:41:58;2.27;80.45
70271;SHT31;57680;54.292;18.598;2023-12-14T05:44:24;2.26;80.42
70271;SHT31;57680;54.292;18.598;2023-12-14T05:46:49;2.27;80.47
70271;SHT31;57680;54.292;18.598;2023-12-14T05:49:14;2.27;80.61
70271;SHT31;57680;54.292;18.598;2023-12-14T05:51:40;2.23;80.60
70271;SHT31;57680;54.292;18.598;2023-12-14T05:54:05;2.21;80.73
70271;SHT31;57680;54.292;18.598;2023-12-14T05:56:30;2.23;80.36
70271;SHT31;57680;54.292;18.598;2023-12-14T05:58:56;2.23;80.15
70271;SHT31;57680;54.292;18.598;2023-12-14T06:01:23;2.23;79.36
70271;SHT31;57680;54.292;18.598;2023-12-14T06:03:49;2.30;79.65
70271;SHT31;57680;54.292;18.598;2023-12-14T06:06:14;2.30;79.09
70271;SHT31;57680;54.292;18.598;2023-12-14T06:08:40;2.34;78.65
70271;SHT31;57680;54.292;18.598;2023-12-14T06:11:05;2.31;78.50
70271;SHT31;57680;54.292;18.598;2023-12-14T06:13:31;2.36;78.63
70271;SHT31;57680;54.292;18.598;2023-12-14T06:15:56;2.37;78.45
70271;SHT31;57680;54.292;18.598;2023-12-14T06:18:21;2.37;78.39
70271;SHT31;57680;54.292;18.598;2023-12-14T06:20:47;2.34;78.45
70271;SHT31;57680;54.292;18.598;2023-12-14T06:23:12;2.33;78.86
70271;SHT31;57680;54.292;18.598;2023-12-14T06:25:37;2.30;79.00
70271;SHT31;57680;54.292;18.598;2023-12-14T06:28:03;2.31;79.04
70271;SHT31;57680;54.292;18.598;2023-12-14T06:30:28;2.26;79.50
70271;SHT31;57680;54.292;18.598;2023-12-14T06:32:54;2.29;79.27
70271;SHT31;57680;54.292;18.598;2023-12-14T06:35:19;2.27;79.57
70271;SHT31;57680;54.292;18.598;2023-12-14T06:37:44;2.27;79.50
70271;SHT31;57680;54.292;18.598;2023-12-14T06:40:10;2.26;79.69
70271;SHT31;57680;54.292;18.598;2023-12-14T06:42:36;2.31;79.60
70271;SHT31;57680;54.292;18.598;2023-12-14T06:45:04;2.30;79.53
70271;SHT31;57680;54.292;18.598;2023-12-14T06:47:30;2.31;79.80
70271;SHT31;57680;54.292;18.598;2023-12-14T06:49:55;2.30;79.51
70271;SHT31;57680;54.292;18.598;2023-12-14T06:52:20;2.29;79.55
70271;SHT31;57680;54.292;18.598;2023-12-14T06:54:46;2.27;79.85
70271;SHT31;57680;54.292;18.598;2023-12-14T06:57:11;2.27;79.73
70271;SHT31;57680;54.292;18.598;2023-12-14T06:59:37;2.24;80.10
70271;SHT31;57680;54.292;18.598;2023-12-14T07:02:02;2.17;80.20
70271;SHT31;57680;54.292;18.598;2023-12-14T07:04:27;2.21;80.33
70271;SHT31;57680;54.292;18.598;2023-12-14T07:06:53;2.24;80.29
70271;SHT31;57680;54.292;18.598;2023-12-14T07:09:18;2.26;80.43
70271;SHT31;57680;54.292;18.598;2023-12-14T07:11:44;2.23;80.82
70271;SHT31;57680;54.292;18.598;2023-12-14T07:14:09;2.20;81.18
70271;SHT31;57680;54.292;18.598;2023-12-14T07:16:34;2.23;81.20
70271;SHT31;57680;54.292;18.598;2023-12-14T07:19:00;2.19;81.53
70271;SHT31;57680;54.292;18.598;2023-12-14T07:21:25;2.20;81.56
70271;SHT31;57680;54.292;18.598;2023-12-14T07:23:50;2.26;81.66
70271;SHT31;57680;54.292;18.598;2023-12-14T07:26:16;2.29;81.58
70271;SHT31;57680;54.292;18.598;2023-12-14T07:28:41;2.29;81.65
70271;SHT31;57680;54.292;18.598;2023-12-14T07:31:07;2.33;81.56
70271;SHT31;57680;54.292;18.598;2023-12-14T07:33:32;2.31;81.53
70271;SHT31;57680;54.292;18.598;2023-12-14T07:35:57;2.37;81.57
70271;SHT31;57680;54.292;18.598;2023-12-14T07:38:23;2.38;81.50
70271;SHT31;57680;54.292;18.598;2023-12-14T07:40:48;2.38;81.53
70271;SHT31;57680;54.292;18.598;2023-12-14T07:43:13;2.44;80.92
70271;SHT31;57680;54.292;18.598;2023-12-14T07:45:39;2.42;81.36
70271;SHT31;57680;54.292;18.598;2023-12-14T07:48:04;2.44;80.55
70271;SHT31;57680;54.292;18.598;2023-12-14T07:50:29;2.51;80.76
70271;SHT31;57680;54.292;18.598;2023-12-14T07:52:55;2.51;80.70
70271;SHT31;57680;54.292;18.598;2023-12-14T07:55:20;2.50;80.38
70271;SHT31;57680;54.292;18.598;2023-12-14T07:57:46;2.54;80.57
70271;SHT31;57680;54.292;18.598;2023-12-14T08:00:12;2.55;80.21
70271;SHT31;57680;54.292;18.598;2023-12-14T08:02:37;2.60;79.78
70271;SHT31;57680;54.292;18.598;2023-12-14T08:05:04;2.58;79.93
70271;SHT31;57680;54.292;18.598;2023-12-14T08:07:31;2.60;79.52
70271;SHT31;57680;54.292;18.598;2023-12-14T08:09:57;2.70;79.05
70271;SHT31;57680;54.292;18.598;2023-12-14T08:12:23;2.74;78.72
70271;SHT31;57680;54.292;18.598;2023-12-14T08:14:49;2.75;78.66
70271;SHT31;57680;54.292;18.598;2023-12-14T08:17:14;2.78;78.54
70271;SHT31;57680;54.292;18.598;2023-12-14T08:19:40;2.77;78.56
70271;SHT31;57680;54.292;18.598;2023-12-14T08:22:05;2.78;78.42
70271;SHT31;57680;54.292;18.598;2023-12-14T08:24:31;2.82;78.23
70271;SHT31;57680;54.292;18.598;2023-12-14T08:26:56;2.87;77.68
70271;SHT31;57680;54.292;18.598;2023-12-14T08:29:21;2.88;77.47
70271;SHT31;57680;54.292;18.598;2023-12-14T08:31:47;2.92;77.53
70271;SHT31;57680;54.292;18.598;2023-12-14T08:34:13;2.95;77.38
70271;SHT31;57680;54.292;18.598;2023-12-14T08:36:38;2.96;77.56
70271;SHT31;57680;54.292;18.598;2023-12-14T08:39:03;2.89;77.79
70271;SHT31;57680;54.292;18.598;2023-12-14T08:41:29;2.85;77.67
70271;SHT31;57680;54.292;18.598;2023-12-14T08:43:54;2.82;77.43
70271;SHT31;57680;54.292;18.598;2023-12-14T08:46:19;2.80;77.75
70271;SHT31;57680;54.292;18.598;2023-12-14T08:48:45;2.81;77.71
70271;SHT31;57680;54.292;18.598;2023-12-14T08:51:10;2.81;77.67
70271;SHT31;57680;54.292;18.598;2023-12-14T08:53:36;2.84;77.89
70271;SHT31;57680;54.292;18.598;2023-12-14T08:56:01;2.85;77.89
70271;SHT31;57680;54.292;18.598;2023-12-14T08:58:27;2.82;77.47
70271;SHT31;57680;54.292;18.598;2023-12-14T09:00:52;2.77;78.08
70271;SHT31;57680;54.292;18.598;2023-12-14T09:03:19;2.71;78.33
70271;SHT31;57680;54.292;18.598;2023-12-14T09:05:44;2.80;78.13
70271;SHT31;57680;54.292;18.598;2023-12-14T09:08:09;2.80;78.26
70271;SHT31;57680;54.292;18.598;2023-12-14T09:10:35;2.89;77.90
70271;SHT31;57680;54.292;18.598;2023-12-14T09:13:00;2.95;77.64
70271;SHT31;57680;54.292;18.598;2023-12-14T09:15:25;2.92;77.31
70271;SHT31;57680;54.292;18.598;2023-12-14T09:17:51;2.96;77.25
70271;SHT31;57680;54.292;18.598;2023-12-14T09:20:16;2.98;76.93
70271;SHT31;57680;54.292;18.598;2023-12-14T09:22:41;3.01;76.81
70271;SHT31;57680;54.292;18.598;2023-12-14T09:25:07;3.03;76.86
70271;SHT31;57680;54.292;18.598;2023-12-14T09:27:32;3.19;76.61
70271;SHT31;57680;54.292;18.598;2023-12-14T09:29:58;3.47;75.13
70271;SHT31;57680;54.292;18.598;2023-12-14T09:32:23;3.73;75.24
70271;SHT31;57680;54.292;18.598;2023-12-14T09:34:48;3.92;74.24
70271;SHT31;57680;54.292;18.598;2023-12-14T09:37:14;4.06;73.54
70271;SHT31;57680;54.292;18.598;2023-12-14T09:39:39;4.13;73.17
70271;SHT31;57680;54.292;18.598;2023-12-14T09:42:06;4.23;73.38
70271;SHT31;57680;54.292;18.598;2023-12-14T09:44:32;4.28;73.36
70271;SHT31;57680;54.292;18.598;2023-12-14T09:46:59;4.33;73.88
70271;SHT31;57680;54.292;18.598;2023-12-14T09:49:32;4.38;74.17
70271;SHT31;57680;54.292;18.598;2023-12-14T09:51:57;4.56;75.92
70271;SHT31;57680;54.292;18.598;2023-12-14T09:54:24;4.63;75.58
70271;SHT31;57680;54.292;18.598;2023-12-14T09:56:49;4.60;73.59
70271;SHT31;57680;54.292;18.598;2023-12-14T09:59:15;4.52;72.74
70271;SHT31;57680;54.292;18.598;2023-12-14T10:01:41;4.60;73.49
70271;SHT31;57680;54.292;18.598;2023-12-14T10:04:07;4.62;72.86
70271;SHT31;57680;54.292;18.598;2023-12-14T10:06:33;4.62;72.10
70271;SHT31;57680;54.292;18.598;2023-12-14T10:08:58;4.57;72.56
70271;SHT31;57680;54.292;18.598;2023-12-14T10:11:24;4.48;73.32
70271;SHT31;57680;54.292;18.598;2023-12-14T10:13:49;4.35;74.94
70271;SHT31;57680;54.292;18.598;2023-12-14T10:16:30;4.38;74.24
70271;SHT31;57680;54.292;18.598;2023-12-14T10:18:57;4.38;73.51
70271;SHT31;57680;54.292;18.598;2023-12-14T10:21:26;4.31;73.85
70271;SHT31;57680;54.292;18.598;2023-12-14T10:23:55;4.31;74.02
70271;SHT31;57680;54.292;18.598;2023-12-14T10:26:25;4.35;74.16
70271;SHT31;57680;54.292;18.598;2023-12-14T10:28:51;4.46;74.35
70271;SHT31;57680;54.292;18.598;2023-12-14T10:31:17;4.52;74.00
70271;SHT31;57680;54.292;18.598;2023-12-14T10:33:42;4.53;73.50
70271;SHT31;57680;54.292;18.598;2023-12-14T10:36:08;4.54;74.27
70271;SHT31;57680;54.292;18.598;2023-12-14T10:38:36;4.52;74.45
70271;SHT31;57680;54.292;18.598;2023-12-14T10:41:02;4.49;74.90
70271;SHT31;57680;54.292;18.598;2023-12-14T10:43:28;4.41;75.20
70271;SHT31;57680;54.292;18.598;2023-12-14T10:45:55;4.26;74.79
70271;SHT31;57680;54.292;18.598;2023-12-14T10:48:21;4.13;75.12
70271;SHT31;57680;54.292;18.598;2023-12-14T10:50:48;4.08;75.94
70271;SHT31;57680;54.292;18.598;2023-12-14T10:53:14;4.03;76.24
70271;SHT31;57680;54.292;18.598;2023-12-14T10:55:42;3.98;75.52
70271;SHT31;57680;54.292;18.598;2023-12-14T10:58:09;3.90;76.14
70271;SHT31;57680;54.292;18.598;2023-12-14T11:00:36;3.81;76.78
70271;SHT31;57680;54.292;18.598;2023-12-14T11:03:03;3.82;77.18
70271;SHT31;57680;54.292;18.598;2023-12-14T11:05:29;3.84;76.61
70271;SHT31;57680;54.292;18.598;2023-12-14T11:07:56;3.80;76.28
70271;SHT31;57680;54.292;18.598;2023-12-14T11:10:28;3.75;76.34
70271;SHT31;57680;54.292;18.598;2023-12-14T11:13:02;3.70;75.91
70271;SHT31;57680;54.292;18.598;2023-12-14T11:15:34;3.69;76.87
70271;SHT31;57680;54.292;18.598;2023-12-14T11:21:00;3.51;77.26
70271;SHT31;57680;54.292;18.598;2023-12-14T11:23:29;3.46;77.66
70271;SHT31;57680;54.292;18.598;2023-12-14T11:26:00;3.42;78.38
70271;SHT31;57680;54.292;18.598;2023-12-14T11:28:34;3.32;77.74
70271;SHT31;57680;54.292;18.598;2023-12-14T11:31:00;3.27;77.23
70271;SHT31;57680;54.292;18.598;2023-12-14T11:33:25;3.16;77.70
70271;SHT31;57680;54.292;18.598;2023-12-14T11:35:51;3.08;78.58
70271;SHT31;57680;54.292;18.598;2023-12-14T11:38:16;3.08;78.75
70271;SHT31;57680;54.292;18.598;2023-12-14T11:40:42;2.98;79.36
70271;SHT31;57680;54.292;18.598;2023-12-14T11:43:08;2.92;79.94
70271;SHT31;57680;54.292;18.598;2023-12-14T11:45:37;2.89;80.35
70271;SHT31;57680;54.292;18.598;2023-12-14T11:48:07;2.89;80.65
70271;SHT31;57680;54.292;18.598;2023-12-14T11:50:33;2.84;80.86
70271;SHT31;57680;54.292;18.598;2023-12-14T11:53:01;2.84;81.04
70271;SHT31;57680;54.292;18.598;2023-12-14T11:55:26;2.82;80.68
70271;SHT31;57680;54.292;18.598;2023-12-14T11:57:52;2.84;80.54
70271;SHT31;57680;54.292;18.598;2023-12-14T12:00:17;2.85;80.58
70271;SHT31;57680;54.292;18.598;2023-12-14T12:02:43;2.85;80.82
70271;SHT31;57680;54.292;18.598;2023-12-14T12:05:09;2.84;80.80
70271;SHT31;57680;54.292;18.598;2023-12-14T12:07:34;2.82;80.96
70271;SHT31;57680;54.292;18.598;2023-12-14T12:09:59;2.81;80.93
70271;SHT31;57680;54.292;18.598;2023-12-14T12:12:25;2.80;81.02
70271;SHT31;57680;54.292;18.598;2023-12-14T12:14:50;2.80;81.39
70271;SHT31;57680;54.292;18.598;2023-12-14T12:17:16;2.77;81.38
70271;SHT31;57680;54.292;18.598;2023-12-14T12:19:41;2.75;81.37
70271;SHT31;57680;54.292;18.598;2023-12-14T12:22:06;2.78;81.82
70271;SHT31;57680;54.292;18.598;2023-12-14T12:24:31;2.77;81.59
70271;SHT31;57680;54.292;18.598;2023-12-14T12:26:57;2.80;81.93
70271;SHT31;57680;54.292;18.598;2023-12-14T12:29:22;2.78;82.08
70271;SHT31;57680;54.292;18.598;2023-12-14T12:31:48;2.77;81.73
70271;SHT31;57680;54.292;18.598;2023-12-14T12:34:14;2.80;81.74
70271;SHT31;57680;54.292;18.598;2023-12-14T12:36:40;2.75;81.70
70271;SHT31;57680;54.292;18.598;2023-12-14T12:39:05;2.78;81.83
70271;SHT31;57680;54.292;18.598;2023-12-14T12:41:30;2.75;81.76
70271;SHT31;57680;54.292;18.598;2023-12-14T12:43:56;2.78;81.80
70271;SHT31;57680;54.292;18.598;2023-12-14T12:46:21;2.74;81.73
70271;SHT31;57680;54.292;18.598;2023-12-14T12:48:46;2.70;82.12
70271;SHT31;57680;54.292;18.598;2023-12-14T12:51:12;2.70;82.20
70271;SHT31;57680;54.292;18.598;2023-12-14T12:53:37;2.71;82.26
70271;SHT31;57680;54.292;18.598;2023-12-14T12:56:03;2.64;82.54
70271;SHT31;57680;54.292;18.598;2023-12-14T12:58:29;2.64;82.44
70271;SHT31;57680;54.292;18.598;2023-12-14T13:00:54;2.61;82.55
70271;SHT31;57680;54.292;18.598;2023-12-14T13:03:20;2.61;82.74
70271;SHT31;57680;54.292;18.598;2023-12-14T13:05:45;2.60;82.77
70271;SHT31;57680;54.292;18.598;2023-12-14T13:08:10;2.61;82.89
70271;SHT31;57680;54.292;18.598;2023-12-14T13:10:36;2.58;82.91
70271;SHT31;57680;54.292;18.598;2023-12-14T13:13:01;2.57;82.93
70271;SHT31;57680;54.292;18.598;2023-12-14T13:15:27;2.57;83.08
70271;SHT31;57680;54.292;18.598;2023-12-14T13:17:53;2.57;83.08
70271;SHT31;57680;54.292;18.598;2023-12-14T13:20:18;2.55;83.33
70271;SHT31;57680;54.292;18.598;2023-12-14T13:22:43;2.52;83.45
70271;SHT31;57680;54.292;18.598;2023-12-14T13:25:09;2.52;83.59
70271;SHT31;57680;54.292;18.598;2023-12-14T13:27:34;2.52;83.50
70271;SHT31;57680;54.292;18.598;2023-12-14T13:30:00;2.52;83.57
70271;SHT31;57680;54.292;18.598;2023-12-14T13:32:25;2.50;83.61
70271;SHT31;57680;54.292;18.598;2023-12-14T13:34:50;2.52;83.54
70271;SHT31;57680;54.292;18.598;2023-12-14T13:37:16;2.51;83.56
70271;SHT31;57680;54.292;18.598;2023-12-14T13:39:41;2.51;83.65
70271;SHT31;57680;54.292;18.598;2023-12-14T13:42:06;2.51;83.67
70271;SHT31;57680;54.292;18.598;2023-12-14T13:44:35;2.51;83.71
70271;SHT31;57680;54.292;18.598;2023-12-14T13:47:04;2.51;83.77
70271;SHT31;57680;54.292;18.598;2023-12-14T13:49:29;2.51;83.62
70271;SHT31;57680;54.292;18.598;2023-12-14T13:51:55;2.51;83.75
70271;SHT31;57680;54.292;18.598;2023-12-14T13:54:20;2.48;83.93
70271;SHT31;57680;54.292;18.598;2023-12-14T13:56:45;2.50;85.15
70271;SHT31;57680;54.292;18.598;2023-12-14T13:59:11;2.42;85.82
70271;SHT31;57680;54.292;18.598;2023-12-14T14:01:36;2.40;86.43
70271;SHT31;57680;54.292;18.598;2023-12-14T14:04:02;2.34;86.89
70271;SHT31;57680;54.292;18.598;2023-12-14T14:06:27;2.29;87.33
70271;SHT31;57680;54.292;18.598;2023-12-14T14:08:52;2.26;87.71
70271;SHT31;57680;54.292;18.598;2023-12-14T14:11:18;2.24;88.09
70271;SHT31;57680;54.292;18.598;2023-12-14T14:13:43;2.20;88.37
70271;SHT31;57680;54.292;18.598;2023-12-14T14:16:08;2.13;88.91
70271;SHT31;57680;54.292;18.598;2023-12-14T14:18:34;2.09;89.28
70271;SHT31;57680;54.292;18.598;2023-12-14T14:20:59;2.05;89.55
70271;SHT31;57680;54.292;18.598;2023-12-14T14:23:24;2.03;89.93
70271;SHT31;57680;54.292;18.598;2023-12-14T14:25:51;2.00;90.12
70271;SHT31;57680;54.292;18.598;2023-12-14T14:28:16;1.98;90.52
70271;SHT31;57680;54.292;18.598;2023-12-14T14:30:42;1.96;90.53
70271;SHT31;57680;54.292;18.598;2023-12-14T14:33:07;1.92;90.74
70271;SHT31;57680;54.292;18.598;2023-12-14T14:35:32;1.90;90.88
70271;SHT31;57680;54.292;18.598;2023-12-14T14:37:58;1.86;91.20
70271;SHT31;57680;54.292;18.598;2023-12-14T14:40:23;1.85;91.33
70271;SHT31;57680;54.292;18.598;2023-12-14T14:42:49;1.83;91.29
70271;SHT31;57680;54.292;18.598;2023-12-14T14:45:14;1.83;91.37
70271;SHT31;57680;54.292;18.598;2023-12-14T14:47:40;1.79;91.44
70271;SHT31;57680;54.292;18.598;2023-12-14T14:50:06;1.79;91.61
70271;SHT31;57680;54.292;18.598;2023-12-14T14:52:31;1.81;91.70
70271;SHT31;57680;54.292;18.598;2023-12-14T14:54:57;1.81;91.47
70271;SHT31;57680;54.292;18.598;2023-12-14T14:57:22;1.86;91.40
70271;SHT31;57680;54.292;18.598;2023-12-14T14:59:48;1.83;91.40
70271;SHT31;57680;54.292;18.598;2023-12-14T15:02:13;1.82;91.51
70271;SHT31;57680;54.292;18.598;2023-12-14T15:04:39;1.81;91.58
70271;SHT31;57680;54.292;18.598;2023-12-14T15:07:04;1.79;91.65
70271;SHT31;57680;54.292;18.598;2023-12-14T15:09:29;1.79;91.83
70271;SHT31;57680;54.292;18.598;2023-12-14T15:11:55;1.78;91.83
70271;SHT31;57680;54.292;18.598;2023-12-14T15:14:20;1.75;91.90
70271;SHT31;57680;54.292;18.598;2023-12-14T15:16:45;1.75;92.00
70271;SHT31;57680;54.292;18.598;2023-12-14T15:19:10;1.78;92.07
70271;SHT31;57680;54.292;18.598;2023-12-14T15:21:36;1.75;92.05
70271;SHT31;57680;54.292;18.598;2023-12-14T15:24:02;1.76;92.12